createdAt,value
2019-05-15T00:01:08.772Z,101685.09
2019-05-15T00:03:39.187Z,101691.80
2019-05-15T00:06:08.800Z,101686.06
2019-05-15T00:08:38.619Z,101685.67
2019-05-15T00:11:08.444Z,101684.84
2019-05-15T00:13:38.864Z,101683.25
2019-05-15T00:16:08.553Z,101686.36
2019-05-15T00:18:38.974Z,101673.13
2019-05-15T00:21:09.266Z,101674.57
2019-05-15T00:23:38.696Z,101677.72
2019-05-15T00:26:09.294Z,101676.56
2019-05-15T00:28:38.807Z,101671.70
2019-05-15T00:31:09.064Z,101673.47
2019-05-15T00:33:39.383Z,101671.42
2019-05-15T00:36:08.627Z,101660.02
2019-05-15T00:38:39.059Z,101664.13
2019-05-15T00:41:09.502Z,101657.15
2019-05-15T00:43:38.715Z,101662.52
2019-05-15T00:46:09.162Z,101657.66
2019-05-15T00:48:39.882Z,101651.47
2019-05-15T00:51:09.155Z,101651.58
2019-05-15T00:53:38.925Z,101644.94
2019-05-15T00:56:08.866Z,101644.16
2019-05-15T00:58:40.197Z,101645.88
2019-05-15T01:01:08.967Z,101645.00
2019-05-15T01:03:38.833Z,101645.05
2019-05-15T01:06:08.510Z,101650.48
2019-05-15T01:08:39.367Z,101653.25
2019-05-15T01:11:09.065Z,101644.38
2019-05-15T01:13:38.957Z,101648.88
2019-05-15T01:16:09.189Z,101642.23
2019-05-15T01:18:38.500Z,101645.83
2019-05-15T01:21:08.440Z,101642.58
2019-05-15T01:23:39.066Z,101640.31
2019-05-15T01:26:08.562Z,101636.33
2019-05-15T01:28:58.359Z,101644.41
2019-05-15T01:31:28.517Z,101649.84
2019-05-15T01:33:58.335Z,101651.59
2019-05-15T01:36:28.834Z,101647.23
2019-05-15T01:38:58.431Z,101649.10
2019-05-15T01:41:28.171Z,101641.59
2019-05-15T01:43:58.155Z,101642.15
2019-05-15T01:46:28.540Z,101637.77
2019-05-15T01:48:58.542Z,101641.02
2019-05-15T01:51:28.542Z,101637.99
2019-05-15T01:53:58.445Z,101643.05
2019-05-15T01:56:29.332Z,101634.69
2019-05-15T01:58:58.397Z,101631.20
2019-05-15T02:01:28.357Z,101630.75
2019-05-15T02:03:58.998Z,101631.59
2019-05-15T02:06:28.599Z,101629.82
2019-05-15T02:08:58.930Z,101626.40
2019-05-15T02:11:28.886Z,101630.38
2019-05-15T02:13:58.701Z,101622.41
2019-05-15T02:16:29.000Z,101618.97
2019-05-15T02:18:58.332Z,101622.02
2019-05-15T02:21:28.826Z,101622.47
2019-05-15T02:23:58.772Z,101621.25
2019-05-15T02:26:28.318Z,101615.55
2019-05-15T02:28:57.372Z,101620.91
2019-05-15T02:31:29.842Z,101620.52
2019-05-15T02:33:59.051Z,101623.63
2019-05-15T02:36:29.405Z,101621.47
2019-05-15T02:38:59.723Z,101625.06
2019-05-15T02:41:29.881Z,101624.18
2019-05-15T02:43:59.223Z,101622.52
2019-05-15T02:46:30.029Z,101614.27
2019-05-15T02:48:59.356Z,101617.82
2019-05-15T02:51:29.903Z,101620.02
2019-05-15T02:53:58.828Z,101620.08
2019-05-15T02:56:29.277Z,101613.55
2019-05-15T02:58:59.886Z,101616.66
2019-05-15T03:01:29.032Z,101618.91
2019-05-15T03:03:59.658Z,101618.41
2019-05-15T03:06:29.910Z,101614.94
2019-05-15T03:08:59.676Z,101611.45
2019-05-15T03:11:29.671Z,101612.78
2019-05-15T03:13:59.366Z,101611.11
2019-05-15T03:16:30.442Z,101616.58
2019-05-15T03:18:59.842Z,101624.88
2019-05-15T03:21:29.620Z,101626.31
2019-05-15T03:23:59.480Z,101622.92
2019-05-15T03:26:29.862Z,101621.16
2019-05-15T03:28:59.058Z,101618.67
2019-05-15T03:31:47.793Z,101620.59
2019-05-15T03:34:02.654Z,101617.94
2019-05-15T03:36:31.524Z,101614.00
2019-05-15T03:39:00.359Z,101617.11
2019-05-15T03:41:29.874Z,101620.16
2019-05-15T03:43:59.652Z,101615.78
2019-05-15T03:46:29.258Z,101617.98
2019-05-15T03:49:00.391Z,101619.36
2019-05-15T03:51:29.184Z,101613.63
2019-05-15T03:54:00.307Z,101613.73
2019-05-15T03:56:29.579Z,101612.89
2019-05-15T03:58:59.718Z,101618.20
2019-05-15T04:01:37.964Z,101613.44
2019-05-15T04:04:00.006Z,101621.84
2019-05-15T04:06:29.910Z,101616.97
2019-05-15T04:08:59.117Z,101621.84
2019-05-15T04:11:29.410Z,101618.84
2019-05-15T04:13:59.396Z,101615.27
2019-05-15T04:16:29.630Z,101614.37
2019-05-15T04:18:59.362Z,101614.87
2019-05-15T04:21:30.399Z,101617.52
2019-05-15T04:23:59.190Z,101613.59
2019-05-15T04:26:28.927Z,101612.42
2019-05-15T04:29:00.133Z,101622.64
2019-05-15T04:31:35.467Z,101622.73
2019-05-15T04:33:59.444Z,101623.13
2019-05-15T04:36:29.644Z,101632.36
2019-05-15T04:38:58.817Z,101635.89
2019-05-15T04:41:29.874Z,101634.09
2019-05-15T04:43:59.758Z,101635.36
2019-05-15T04:46:29.967Z,101637.57
2019-05-15T04:48:59.675Z,101633.64
2019-05-15T04:51:30.387Z,101640.17
2019-05-15T04:53:59.856Z,101638.84
2019-05-15T04:56:29.455Z,101638.59
2019-05-15T04:59:00.045Z,101645.08
2019-05-15T05:01:29.389Z,101643.32
2019-05-15T05:04:01.789Z,101642.42
2019-05-15T05:06:38.503Z,101648.17
2019-05-15T05:09:09.184Z,101645.92
2019-05-15T05:11:38.432Z,101649.01
2019-05-15T05:14:08.485Z,101649.80
2019-05-15T05:16:39.206Z,101650.18
2019-05-15T05:19:09.105Z,101650.97
2019-05-15T05:21:38.511Z,101650.87
2019-05-15T05:24:08.090Z,101652.58
2019-05-15T05:26:38.251Z,101651.99
2019-05-15T05:29:08.504Z,101652.77
2019-05-15T05:31:39.131Z,101653.48
2019-05-15T05:34:08.342Z,101651.37
2019-05-15T05:36:38.631Z,101655.67
2019-05-15T05:39:09.622Z,101651.82
2019-05-15T05:41:58.858Z,101648.61
2019-05-15T05:44:29.120Z,101655.03
2019-05-15T05:46:58.226Z,101651.73
2019-05-15T05:49:28.831Z,101656.48
2019-05-15T05:51:58.736Z,101656.83
2019-05-15T05:54:28.822Z,101655.33
2019-05-15T05:56:58.625Z,101657.91
2019-05-15T05:59:28.420Z,101650.71
2019-05-15T06:04:31.814Z,101650.94
2019-05-15T06:07:13.311Z,101653.48
2019-05-15T06:09:31.506Z,101652.38
2019-05-15T06:12:00.538Z,101649.22
2019-05-15T06:14:29.527Z,101647.78
2019-05-15T06:16:58.977Z,101645.83
2019-05-15T06:19:31.357Z,101651.36
2019-05-15T06:22:01.060Z,101650.25
2019-05-15T06:24:30.615Z,101647.09
2019-05-15T06:26:59.917Z,101643.10
2019-05-15T06:29:28.776Z,101644.65
2019-05-15T06:31:58.802Z,101644.47
2019-05-15T06:34:28.575Z,101639.47
2019-05-15T06:36:58.848Z,101641.95
2019-05-15T06:39:28.365Z,101639.56
2019-05-15T06:41:58.831Z,101639.33
2019-05-15T06:44:28.055Z,101638.33
2019-05-15T06:46:58.738Z,101639.47
2019-05-15T06:49:28.609Z,101639.47
2019-05-15T06:51:58.173Z,101630.41
2019-05-15T06:54:28.451Z,101633.22
2019-05-15T06:56:58.358Z,101629.86
2019-05-15T06:59:28.711Z,101632.78
2019-05-15T07:01:59.425Z,101632.27
2019-05-15T07:04:28.895Z,101634.72
2019-05-15T07:07:02.939Z,101641.50
2019-05-15T07:09:32.416Z,101636.39
2019-05-15T07:12:01.724Z,101637.63
2019-05-15T07:14:31.097Z,101636.05
2019-05-15T07:17:00.189Z,101625.85
2019-05-15T07:19:29.455Z,101629.65
2019-05-15T07:21:58.870Z,101622.21
2019-05-15T07:24:28.943Z,101619.41
2019-05-15T07:26:59.091Z,101612.23
2019-05-15T07:29:29.195Z,101617.02
2019-05-15T07:31:58.835Z,101614.61
2019-05-15T07:34:28.509Z,101616.87
2019-05-15T07:36:59.140Z,101623.13
2019-05-15T07:39:28.838Z,101614.91
2019-05-15T07:41:58.198Z,101616.56
2019-05-15T07:44:28.225Z,101615.98
2019-05-15T07:49:33.831Z,101602.58
2019-05-15T07:52:02.802Z,101607.56
2019-05-15T07:54:31.568Z,101605.83
2019-05-15T07:57:01.297Z,101599.97
2019-05-15T07:59:30.313Z,101601.27
2019-05-15T08:01:59.105Z,101604.50
2019-05-15T08:04:32.641Z,101604.43
2019-05-15T08:07:00.232Z,101599.95
2019-05-15T08:09:29.679Z,101597.08
2019-05-15T08:12:03.248Z,101596.87
2019-05-15T08:14:32.427Z,101607.11
2019-05-15T08:17:02.232Z,101598.47
2019-05-15T08:19:31.166Z,101594.92
2019-05-15T08:21:59.959Z,101590.39
2019-05-15T08:24:29.835Z,101590.01
2019-05-15T08:26:59.677Z,101578.03
2019-05-15T08:29:29.608Z,101578.80
2019-05-15T08:31:59.369Z,101575.53
2019-05-15T08:34:28.344Z,101579.80
2019-05-15T08:36:59.022Z,101577.17
2019-05-15T08:39:28.450Z,101573.50
2019-05-15T08:41:58.416Z,101566.83
2019-05-15T08:44:29.352Z,101568.86
2019-05-15T08:46:58.823Z,101567.67
2019-05-15T08:49:28.431Z,101564.36
2019-05-15T08:51:58.376Z,101571.30
2019-05-15T08:54:29.010Z,101562.34
2019-05-15T08:56:59.215Z,101566.27
2019-05-15T08:59:29.486Z,101565.39
2019-05-15T09:01:58.288Z,101565.54
2019-05-15T09:04:33.863Z,101558.57
2019-05-15T09:07:01.175Z,101551.06
2019-05-15T09:09:28.796Z,101549.73
2019-05-15T09:11:58.515Z,101544.16
2019-05-15T09:14:28.586Z,101536.23
2019-05-15T09:16:58.233Z,101535.82
2019-05-15T09:19:28.127Z,101530.98
2019-05-15T09:21:58.480Z,101529.34
2019-05-15T09:24:28.554Z,101522.59
2019-05-15T09:26:59.535Z,101521.56
2019-05-15T09:29:28.634Z,101517.12
2019-05-15T09:31:58.840Z,101522.69
2019-05-15T09:34:38.086Z,101513.28
2019-05-15T09:37:00.011Z,101514.02
2019-05-15T09:39:28.940Z,101508.76
2019-05-15T09:41:58.004Z,101502.38
2019-05-15T09:44:28.352Z,101494.98
2019-05-15T09:46:58.571Z,101484.63
2019-05-15T09:49:28.622Z,101477.72
2019-05-15T09:51:58.589Z,101495.30
2019-05-15T09:54:29.035Z,101486.47
2019-05-15T09:56:58.590Z,101484.27
2019-05-15T09:59:28.158Z,101483.96
2019-05-15T10:01:58.884Z,101483.16
2019-05-15T10:04:28.636Z,101493.30
2019-05-15T10:06:57.904Z,101482.31
2019-05-15T10:09:28.398Z,101480.06
2019-05-15T10:11:57.294Z,101486.75
2019-05-15T10:14:29.433Z,101475.77
2019-05-15T10:16:58.356Z,101476.06
2019-05-15T10:19:28.999Z,101482.99
2019-05-15T10:21:59.458Z,101473.58
2019-05-15T10:24:28.584Z,101480.63
2019-05-15T10:26:58.099Z,101468.92
2019-05-15T10:29:28.156Z,101467.92
2019-05-15T10:31:57.050Z,101457.08
2019-05-15T10:34:25.897Z,101457.46
2019-05-15T10:36:54.770Z,101448.50
2019-05-15T10:39:23.550Z,101454.01
2019-05-15T10:41:52.407Z,101450.38
2019-05-15T10:44:21.279Z,101449.84
2019-05-15T10:46:50.115Z,101439.25
2019-05-15T10:49:19.095Z,101433.41
2019-05-15T10:51:47.935Z,101428.33
2019-05-15T10:54:18.993Z,101434.59
2019-05-15T10:56:47.551Z,101431.17
2019-05-15T10:59:18.285Z,101438.59
2019-05-15T11:01:48.699Z,101426.33
2019-05-15T11:04:18.112Z,101423.28
2019-05-15T11:06:48.970Z,101411.56
2019-05-15T11:09:18.647Z,101408.27
2019-05-15T11:11:51.188Z,101403.05
2019-05-15T11:14:18.583Z,101400.47
2019-05-15T11:16:48.654Z,101404.39
2019-05-15T11:19:17.647Z,101397.67
2019-05-15T11:21:48.603Z,101392.41
2019-05-15T11:24:19.297Z,101392.87
2019-05-15T11:26:49.911Z,101386.06
2019-05-15T11:29:18.159Z,101381.46
2019-05-15T11:31:48.779Z,101381.58
2019-05-15T11:34:18.615Z,101365.25
2019-05-15T11:36:48.558Z,101371.78
2019-05-15T11:39:18.204Z,101370.94
2019-05-15T11:41:49.263Z,101366.88
2019-05-15T11:44:18.861Z,101369.89
2019-05-15T11:46:49.701Z,101362.78
2019-05-15T11:49:18.410Z,101351.94
2019-05-15T11:51:49.175Z,101349.16
2019-05-15T11:54:19.094Z,101351.19
2019-05-15T11:56:48.970Z,101363.05
2019-05-15T11:59:18.549Z,101362.64
2019-05-15T12:01:48.892Z,101354.82
2019-05-15T12:04:27.657Z,101345.53
2019-05-15T12:06:58.704Z,101348.47
2019-05-15T12:09:19.088Z,101342.75
2019-05-15T12:12:08.845Z,101342.13
2019-05-15T12:14:38.862Z,101331.70
2019-05-15T12:17:14.950Z,101329.48
2019-05-15T12:19:39.139Z,101335.91
2019-05-15T12:22:08.069Z,101326.20
2019-05-15T12:24:40.345Z,101322.50
2019-05-15T12:27:15.256Z,101315.83
2019-05-15T12:29:39.834Z,101315.72
2019-05-15T12:32:23.334Z,101314.80
2019-05-15T12:34:39.552Z,101310.33
2019-05-15T12:37:09.770Z,101304.04
2019-05-15T12:39:40.882Z,101304.13
2019-05-15T13:00:02.672Z,101280.77
2019-05-15T13:02:31.515Z,101280.77
2019-05-15T13:05:00.326Z,101279.06
2019-05-15T13:07:29.100Z,101267.98
2019-05-15T13:09:58.083Z,101280.48
2019-05-15T13:12:28.845Z,101282.19
2019-05-15T13:14:59.111Z,101282.65
2019-05-15T13:17:29.113Z,101275.81
2019-05-15T13:19:58.724Z,101266.98
2019-05-15T13:22:28.178Z,101261.73
2019-05-15T13:24:58.875Z,101252.56
2019-05-15T13:27:27.574Z,101263.77
2019-05-15T13:29:58.247Z,101260.59
2019-05-15T13:32:28.455Z,101249.31
2019-05-15T13:34:59.450Z,101250.13
2019-05-15T13:37:30.920Z,101235.68
2019-05-15T13:39:58.804Z,101240.67
2019-05-15T13:42:28.100Z,101235.73
2019-05-15T13:44:58.699Z,101233.86
2019-05-15T13:47:28.168Z,101229.50
2019-05-15T13:49:58.623Z,101231.25
2019-05-15T13:52:28.345Z,101234.67
2019-05-15T13:54:57.425Z,101230.89
2019-05-15T13:57:29.392Z,101228.61
2019-05-15T13:59:58.876Z,101220.22
2019-05-15T14:02:28.126Z,101220.27
2019-05-15T14:04:58.268Z,101222.38
2019-05-15T14:07:30.075Z,101227.26
2019-05-15T14:09:59.951Z,101230.48
2019-05-15T14:12:28.406Z,101226.85
2019-05-15T14:14:58.129Z,101213.58
2019-05-15T14:17:28.267Z,101221.23
2019-05-15T14:19:58.003Z,101217.41
2019-05-15T14:22:26.800Z,101215.33
2019-05-15T14:24:58.289Z,101212.66
2019-05-15T14:27:28.367Z,101219.80
2019-05-15T14:29:58.189Z,101213.67
2019-05-15T14:32:35.548Z,101214.35
2019-05-15T14:34:58.516Z,101199.94
2019-05-15T14:37:28.665Z,101205.19
2019-05-15T14:39:58.018Z,101204.23
2019-05-15T14:42:29.269Z,101195.94
2019-05-15T14:44:59.229Z,101199.12
2019-05-15T14:47:29.500Z,101201.98
2019-05-15T14:49:58.644Z,101199.90
2019-05-15T14:52:28.063Z,101203.08
2019-05-15T14:54:59.062Z,101196.11
2019-05-15T14:57:27.760Z,101195.33
2019-05-15T14:59:57.990Z,101197.45
2019-05-15T15:02:27.060Z,101190.77
2019-05-15T15:04:55.931Z,101185.02
2019-05-15T15:07:24.832Z,101182.34
2019-05-15T15:09:53.604Z,101188.47
2019-05-15T15:12:24.117Z,101187.81
2019-05-15T15:14:52.935Z,101186.47
2019-05-15T15:17:21.869Z,101187.53
2019-05-15T15:19:52.374Z,101185.98
2019-05-15T15:22:21.725Z,101180.53
2019-05-15T15:24:50.659Z,101174.81
2019-05-15T15:27:19.699Z,101174.34
2019-05-15T15:29:48.570Z,101174.81
2019-05-15T15:32:17.439Z,101169.00
2019-05-15T15:34:47.983Z,101169.47
2019-05-15T15:37:16.858Z,101174.72
2019-05-15T15:39:48.048Z,101174.72
2019-05-15T15:42:16.304Z,101169.56
2019-05-15T15:44:45.111Z,101166.52
2019-05-15T15:47:13.990Z,101164.41
2019-05-15T15:49:42.783Z,101168.23
2019-05-15T15:52:11.578Z,101168.61
2019-05-15T15:54:40.476Z,101171.38
2019-05-15T15:57:09.552Z,101171.55
2019-05-15T15:59:38.626Z,101160.77
2019-05-15T16:02:08.832Z,101170.69
2019-05-15T16:04:39.274Z,101165.72
2019-05-15T16:07:09.571Z,101157.97
2019-05-15T16:09:38.809Z,101158.44
2019-05-15T16:12:09.694Z,101157.79
2019-05-15T16:14:38.747Z,101151.38
2019-05-15T16:17:08.618Z,101157.19
2019-05-15T16:19:38.879Z,101162.63
2019-05-15T16:22:10.875Z,101161.38
2019-05-15T16:24:39.673Z,101162.59
2019-05-15T16:27:09.641Z,101156.47
2019-05-15T16:29:39.341Z,101153.60
2019-05-15T16:32:08.758Z,101158.17
2019-05-15T16:34:39.352Z,101159.05
2019-05-15T16:37:08.988Z,101156.82
2019-05-15T16:39:38.313Z,101148.49
2019-05-15T16:42:07.304Z,101146.09
2019-05-15T16:44:38.390Z,101144.94
2019-05-15T16:47:08.433Z,101140.19
2019-05-15T16:49:39.082Z,101135.02
2019-05-15T16:52:09.276Z,101132.81
2019-05-15T16:54:38.454Z,101138.71
2019-05-15T16:57:10.016Z,101127.75
2019-05-15T16:59:38.950Z,101136.72
2019-05-15T17:02:08.826Z,101132.80
2019-05-15T17:04:38.459Z,101136.48
2019-05-15T17:07:07.259Z,101125.16
2019-05-15T17:09:38.558Z,101116.65
2019-05-15T17:12:08.748Z,101118.16
2019-05-15T17:14:38.817Z,101124.09
2019-05-15T17:17:08.083Z,101122.84
2019-05-15T17:19:37.003Z,101117.59
2019-05-15T17:22:05.868Z,101115.47
2019-05-15T17:24:34.644Z,101120.12
2019-05-15T17:27:03.608Z,101121.63
2019-05-15T17:29:32.398Z,101114.20
2019-05-15T17:32:01.330Z,101115.55
2019-05-15T17:34:30.158Z,101121.44
2019-05-15T17:36:58.957Z,101113.05
2019-05-15T17:39:36.501Z,101109.69
2019-05-15T17:41:59.395Z,101115.49
2019-05-15T17:44:28.773Z,101111.58
2019-05-15T17:46:58.415Z,101111.20
2019-05-15T17:49:28.053Z,101107.75
2019-05-15T17:51:58.226Z,101107.09
2019-05-15T17:54:28.757Z,101104.50
2019-05-15T17:56:58.397Z,101099.27
2019-05-15T17:59:28.663Z,101105.93
2019-05-15T18:01:59.518Z,101105.52
2019-05-15T18:04:28.398Z,101102.10
2019-05-15T18:06:59.052Z,101103.02
2019-05-15T18:09:28.134Z,101108.86
2019-05-15T18:11:58.657Z,101108.41
2019-05-15T18:14:27.452Z,101101.92
2019-05-15T18:16:58.199Z,101104.67
2019-05-15T18:19:27.013Z,101110.97
2019-05-15T18:21:55.997Z,101108.39
2019-05-15T18:24:24.910Z,101108.77
2019-05-15T18:26:53.766Z,101104.09
2019-05-15T18:29:23.166Z,101106.27
2019-05-15T18:31:51.954Z,101115.23
2019-05-15T18:34:20.920Z,101118.45
2019-05-15T18:36:49.704Z,101107.95
2019-05-15T18:39:19.341Z,101114.24
2019-05-15T18:41:48.589Z,101116.91
2019-05-15T18:44:18.849Z,101112.63
2019-05-15T18:46:48.730Z,101105.54
2019-05-15T18:49:18.070Z,101112.30
2019-05-15T18:51:47.910Z,101110.21
2019-05-15T18:54:19.016Z,101113.80
2019-05-15T18:56:49.066Z,101113.80
2019-05-15T18:59:18.189Z,101106.38
2019-05-15T19:01:47.963Z,101111.30
2019-05-15T19:04:18.355Z,101113.22
2019-05-15T19:06:47.340Z,101114.14
2019-05-15T19:09:18.711Z,101109.39
2019-05-15T19:11:48.830Z,101109.85
2019-05-15T19:14:19.215Z,101107.27
2019-05-15T19:16:48.478Z,101110.80
2019-05-15T19:19:18.515Z,101113.15
2019-05-15T19:21:48.878Z,101117.15
2019-05-15T19:24:18.507Z,101114.89
2019-05-15T19:26:47.658Z,101123.35
2019-05-15T19:29:17.985Z,101132.56
2019-05-15T19:31:46.870Z,101126.36
2019-05-15T19:34:15.732Z,101133.97
2019-05-15T19:36:44.504Z,101131.39
2019-05-15T19:39:13.302Z,101136.27
2019-05-15T19:41:42.095Z,101131.48
2019-05-15T19:44:11.135Z,101137.77
2019-05-15T19:46:39.989Z,101135.19
2019-05-15T19:49:08.907Z,101137.44
2019-05-15T19:51:38.247Z,101133.94
2019-05-15T19:54:09.222Z,101130.39
2019-05-15T19:56:38.393Z,101133.14
2019-05-15T19:59:08.815Z,101133.61
2019-05-15T20:01:38.353Z,101127.98
2019-05-15T20:04:08.032Z,101135.44
2019-05-15T20:06:38.731Z,101135.98
2019-05-15T20:09:07.897Z,101131.19
2019-05-15T20:11:38.494Z,101125.48
2019-05-15T20:14:07.385Z,101124.15
2019-05-15T20:16:38.683Z,101118.91
2019-05-15T20:19:08.731Z,101113.66
2019-05-15T20:21:37.255Z,101119.86
2019-05-15T20:24:08.312Z,101115.94
2019-05-15T20:26:38.025Z,101120.41
2019-05-15T20:29:09.080Z,101121.44
2019-05-15T20:31:38.494Z,101127.23
2019-05-15T20:34:09.356Z,101125.52
2019-05-15T20:36:38.579Z,101126.85
2019-05-15T20:39:08.269Z,101132.64
2019-05-15T20:41:38.481Z,101125.69
2019-05-15T20:44:08.873Z,101118.61
2019-05-15T20:46:39.150Z,101118.61
2019-05-15T20:49:08.586Z,101122.23
2019-05-15T20:51:39.018Z,101120.11
2019-05-15T20:54:08.453Z,101125.44
2019-05-15T20:56:38.450Z,101124.19
2019-05-15T20:59:08.939Z,101121.52
2019-05-15T21:01:37.969Z,101119.81
2019-05-15T21:04:18.939Z,101114.56
2019-05-15T21:06:37.771Z,101111.52
2019-05-15T21:09:08.401Z,101114.64
2019-05-15T21:11:39.465Z,101110.27
2019-05-15T21:14:08.707Z,101104.23
2019-05-15T21:16:37.376Z,101103.45
2019-05-15T21:19:07.962Z,101098.98
2019-05-15T21:21:38.631Z,101091.08
2019-05-15T21:24:07.874Z,101096.78
2019-05-15T21:26:38.244Z,101101.19
2019-05-15T21:29:07.877Z,101098.20
2019-05-15T21:31:38.016Z,101098.61
2019-05-15T21:34:08.433Z,101096.95
2019-05-15T21:36:39.379Z,101092.88
2019-05-15T21:39:07.994Z,101081.45
2019-05-15T21:41:38.734Z,101081.13
2019-05-15T21:44:08.509Z,101074.55
2019-05-15T21:46:37.594Z,101073.27
2019-05-15T21:49:08.794Z,101071.55
2019-05-15T21:51:38.417Z,101067.10
2019-05-15T21:54:09.358Z,101062.31
2019-05-15T21:56:38.586Z,101058.03
2019-05-15T21:59:08.194Z,101061.16
2019-05-15T22:01:39.775Z,101060.77
2019-05-15T22:04:07.808Z,101059.91
2019-05-15T22:06:36.783Z,101054.57
2019-05-15T22:09:07.857Z,101058.19
2019-05-15T22:11:38.833Z,101053.87
2019-05-15T22:14:08.099Z,101056.94
2019-05-15T22:16:37.030Z,101051.28
2019-05-15T22:19:05.914Z,101055.86
2019-05-15T22:21:34.737Z,101051.94
2019-05-15T22:24:03.510Z,101052.86
2019-05-15T22:26:32.374Z,101050.69
2019-05-15T22:29:01.142Z,101050.28
2019-05-15T22:31:30.110Z,101049.52
2019-05-15T22:33:58.890Z,101047.32
2019-05-15T22:36:28.159Z,101045.61
2019-05-15T22:38:59.369Z,101039.03
2019-05-15T22:41:28.489Z,101041.70
2019-05-15T22:43:57.373Z,101041.28
2019-05-15T22:46:26.159Z,101039.58
2019-05-15T22:48:55.874Z,101038.25
2019-05-15T22:51:24.695Z,101028.13
2019-05-15T22:53:53.519Z,101025.47
2019-05-15T22:56:22.325Z,101025.02
2019-05-15T22:58:51.164Z,101022.81
2019-05-15T23:01:20.022Z,101026.42
2019-05-15T23:03:48.793Z,101019.39
2019-05-15T23:06:18.061Z,101018.06
2019-05-15T23:08:48.912Z,101020.31
2019-05-15T23:11:18.260Z,101019.84
2019-05-15T23:13:48.394Z,101014.61
2019-05-15T23:16:18.206Z,101012.90
2019-05-15T23:18:48.449Z,101002.33
2019-05-15T23:21:18.348Z,101001.08
2019-05-15T23:23:48.730Z,100997.47
2019-05-15T23:26:17.910Z,100993.55
2019-05-15T23:28:48.130Z,100990.02
2019-05-15T23:31:18.900Z,100986.60
2019-05-15T23:33:48.263Z,100984.78
2019-05-15T23:36:18.130Z,100976.88
2019-05-15T23:38:47.982Z,100973.38
2019-05-15T23:41:18.921Z,100975.25
2019-05-15T23:43:48.365Z,100974.00
2019-05-15T23:46:18.380Z,100969.13
2019-05-15T23:48:48.500Z,100969.63
2019-05-15T23:51:18.968Z,100964.47
2019-05-15T23:53:48.278Z,100960.06
2019-05-15T23:56:19.051Z,100959.14
2019-05-15T23:58:47.962Z,100951.62
